LNICK ENRA-ENBO
Flight info
| Callsign | LNICK |
|---|---|
| Flight time | 0h 27m |
| Altitude | 8000 |
| Route | RANUM |
| Aircraft | BN2P/L-SFG/C |
Departure
| Time | 2026-05-04 21:30 |
|---|---|
| Airport | Mo i Rana Airport, Røssvoll (ENRA) |
Arrival
| Time | 2026-05-04 21:58 |
|---|---|
| Airport | Bodø Airport (ENBO) |
| Time | Latitude | Longitude | Altitude | Speed | Heading |
|---|---|---|---|---|---|
| 2026-05-04 21:13 | 66.36423 | 14.30358 | 178 ft | 0 kts | 311° |
| 2026-05-04 21:19 | 66.36443 | 14.30302 | 178 ft | 0 kts | 309° |
| 2026-05-04 21:19 | 66.36443 | 14.30300 | 178 ft | 0 kts | 307° |
| 2026-05-04 21:23 | 66.36443 | 14.30301 | 178 ft | 0 kts | 307° |
| 2026-05-04 21:25 | 66.36443 | 14.30300 | 178 ft | 0 kts | 306° |
| 2026-05-04 21:25 | 66.36443 | 14.30296 | 178 ft | 1 kts | 287° |
| 2026-05-04 21:25 | 66.36423 | 14.30231 | 176 ft | 7 kts | 228° |
| 2026-05-04 21:25 | 66.36385 | 14.30162 | 176 ft | 7 kts | 171° |
| 2026-05-04 21:26 | 66.36347 | 14.30229 | 176 ft | 5 kts | 142° |
| 2026-05-04 21:26 | 66.36317 | 14.30292 | 176 ft | 11 kts | 136° |
| 2026-05-04 21:26 | 66.36215 | 14.30507 | 177 ft | 25 kts | 144° |
| 2026-05-04 21:26 | 66.36121 | 14.30705 | 176 ft | 7 kts | 140° |
| 2026-05-04 21:27 | 66.36089 | 14.30755 | 176 ft | 0 kts | 77° |
| 2026-05-04 21:27 | 66.36111 | 14.30727 | 176 ft | 4 kts | 315° |
| 2026-05-04 21:27 | 66.36118 | 14.30712 | 176 ft | 0 kts | 317° |
| 2026-05-04 21:29 | 66.36126 | 14.30696 | 176 ft | 15 kts | 319° |
| 2026-05-04 21:30 | 66.36397 | 14.30126 | 186 ft | 79 kts | 318° |
| 2026-05-04 21:30 | 66.36829 | 14.29392 | 558 ft | 76 kts | 325° |
| 2026-05-04 21:30 | 66.37287 | 14.28732 | 879 ft | 78 kts | 326° |
| 2026-05-04 21:30 | 66.37781 | 14.28000 | 1108 ft | 90 kts | 325° |
| 2026-05-04 21:31 | 66.39009 | 14.26258 | 1616 ft | 105 kts | 333° |
| 2026-05-04 21:31 | 66.39721 | 14.25760 | 1852 ft | 111 kts | 349° |
| 2026-05-04 21:31 | 66.40498 | 14.25742 | 2151 ft | 111 kts | 2° |
| 2026-05-04 21:32 | 66.41263 | 14.26032 | 2389 ft | 114 kts | 4° |
| 2026-05-04 21:32 | 66.42055 | 14.26140 | 2635 ft | 115 kts | 358° |
| 2026-05-04 21:32 | 66.42873 | 14.26179 | 2841 ft | 118 kts | 358° |
| 2026-05-04 21:32 | 66.43673 | 14.26278 | 3113 ft | 114 kts | 358° |
| 2026-05-04 21:33 | 66.44445 | 14.26300 | 3400 ft | 110 kts | 357° |
| 2026-05-04 21:33 | 66.45199 | 14.26279 | 3644 ft | 110 kts | 356° |
| 2026-05-04 21:33 | 66.45989 | 14.26292 | 3833 ft | 114 kts | 358° |
| 2026-05-04 21:33 | 66.46777 | 14.26271 | 4099 ft | 111 kts | 354° |
| 2026-05-04 21:34 | 66.47532 | 14.26164 | 4364 ft | 109 kts | 351° |
| 2026-05-04 21:34 | 66.48276 | 14.25999 | 4638 ft | 108 kts | 349° |
| 2026-05-04 21:34 | 66.49024 | 14.25796 | 4908 ft | 108 kts | 348° |
| 2026-05-04 21:34 | 66.49762 | 14.25574 | 5170 ft | 107 kts | 348° |
| 2026-05-04 21:35 | 66.50500 | 14.25341 | 5434 ft | 106 kts | 347° |
| 2026-05-04 21:35 | 66.51215 | 14.25108 | 5692 ft | 105 kts | 347° |
| 2026-05-04 21:35 | 66.51942 | 14.24866 | 5941 ft | 105 kts | 347° |
| 2026-05-04 21:35 | 66.52663 | 14.24623 | 6181 ft | 106 kts | 346° |
| 2026-05-04 21:36 | 66.53384 | 14.24380 | 6436 ft | 106 kts | 346° |
| 2026-05-04 21:36 | 66.54117 | 14.24130 | 6679 ft | 106 kts | 346° |
| 2026-05-04 21:36 | 66.54841 | 14.23884 | 6939 ft | 106 kts | 346° |
| 2026-05-04 21:36 | 66.55568 | 14.23645 | 7199 ft | 106 kts | 349° |
| 2026-05-04 21:37 | 66.56311 | 14.23986 | 7461 ft | 111 kts | 7° |
| 2026-05-04 21:37 | 66.57044 | 14.24509 | 7718 ft | 111 kts | 7° |
| 2026-05-04 21:37 | 66.57793 | 14.25051 | 7922 ft | 116 kts | 7° |
| 2026-05-04 21:37 | 66.58576 | 14.25608 | 8151 ft | 115 kts | 7° |
| 2026-05-04 21:38 | 66.59315 | 14.25607 | 8393 ft | 106 kts | 334° |
| 2026-05-04 21:38 | 66.60081 | 14.25111 | 8440 ft | 120 kts | 343° |
| 2026-05-04 21:38 | 66.60933 | 14.24754 | 8435 ft | 128 kts | 346° |
| 2026-05-04 21:38 | 66.61833 | 14.24391 | 8431 ft | 132 kts | 345° |
| 2026-05-04 21:39 | 66.62791 | 14.23981 | 8136 ft | 149 kts | 345° |
| 2026-05-04 21:39 | 66.63794 | 14.23543 | 8066 ft | 145 kts | 345° |
| 2026-05-04 21:39 | 66.64776 | 14.23106 | 8056 ft | 140 kts | 345° |
| 2026-05-04 21:39 | 66.65728 | 14.22677 | 8055 ft | 138 kts | 345° |
| 2026-05-04 21:40 | 66.66660 | 14.22254 | 8052 ft | 137 kts | 344° |
| 2026-05-04 21:40 | 66.67600 | 14.21827 | 8048 ft | 137 kts | 345° |
| 2026-05-04 21:40 | 66.68524 | 14.21404 | 8047 ft | 137 kts | 344° |
| 2026-05-04 21:40 | 66.69459 | 14.20977 | 8045 ft | 136 kts | 344° |
| 2026-05-04 21:41 | 66.70401 | 14.20546 | 8043 ft | 136 kts | 344° |
| 2026-05-04 21:41 | 66.71326 | 14.20122 | 8042 ft | 136 kts | 345° |
| 2026-05-04 21:41 | 66.72253 | 14.19697 | 8038 ft | 136 kts | 344° |
| 2026-05-04 21:41 | 66.73190 | 14.19267 | 8032 ft | 136 kts | 345° |
| 2026-05-04 21:42 | 66.74120 | 14.18840 | 8030 ft | 135 kts | 345° |
| 2026-05-04 21:42 | 66.75035 | 14.18420 | 8029 ft | 135 kts | 344° |
| 2026-05-04 21:42 | 66.75957 | 14.17995 | 8032 ft | 135 kts | 345° |
| 2026-05-04 21:42 | 66.76888 | 14.17567 | 8034 ft | 136 kts | 345° |
| 2026-05-04 21:43 | 66.77817 | 14.17139 | 8035 ft | 136 kts | 345° |
| 2026-05-04 21:43 | 66.78745 | 14.16710 | 8038 ft | 136 kts | 345° |
| 2026-05-04 21:43 | 66.79673 | 14.16293 | 8042 ft | 136 kts | 345° |
| 2026-05-04 21:43 | 66.80605 | 14.15862 | 8044 ft | 136 kts | 345° |
| 2026-05-04 21:44 | 66.81540 | 14.15429 | 8046 ft | 136 kts | 345° |
| 2026-05-04 21:44 | 66.82475 | 14.14996 | 8047 ft | 137 kts | 345° |
| 2026-05-04 21:44 | 66.83411 | 14.14562 | 8046 ft | 137 kts | 345° |
| 2026-05-04 21:44 | 66.84347 | 14.14129 | 8047 ft | 137 kts | 345° |
| 2026-05-04 21:45 | 66.85291 | 14.13691 | 8047 ft | 137 kts | 345° |
| 2026-05-04 21:45 | 66.86227 | 14.13257 | 8047 ft | 137 kts | 345° |
| 2026-05-04 21:45 | 66.87170 | 14.12819 | 8049 ft | 137 kts | 344° |
| 2026-05-04 21:45 | 66.88113 | 14.12507 | 8046 ft | 139 kts | 356° |
| 2026-05-04 21:46 | 66.89084 | 14.12944 | 8058 ft | 142 kts | 7° |
| 2026-05-04 21:46 | 66.90051 | 14.13548 | 8061 ft | 143 kts | 7° |
| 2026-05-04 21:46 | 66.91009 | 14.14149 | 8064 ft | 143 kts | 8° |
| 2026-05-04 21:46 | 66.91975 | 14.14751 | 8069 ft | 143 kts | 8° |
| 2026-05-04 21:47 | 66.92944 | 14.15352 | 8074 ft | 143 kts | 8° |
| 2026-05-04 21:47 | 66.93922 | 14.15959 | 8078 ft | 143 kts | 7° |
| 2026-05-04 21:47 | 66.94882 | 14.16555 | 8086 ft | 143 kts | 8° |
| 2026-05-04 21:47 | 66.95866 | 14.17165 | 8095 ft | 143 kts | 7° |
| 2026-05-04 21:48 | 66.96831 | 14.17763 | 8099 ft | 143 kts | 7° |
| 2026-05-04 21:48 | 66.97796 | 14.18362 | 8103 ft | 143 kts | 7° |
| 2026-05-04 21:48 | 66.98755 | 14.18957 | 8104 ft | 143 kts | 7° |
| 2026-05-04 21:48 | 66.99723 | 14.19558 | 8107 ft | 143 kts | 7° |
| 2026-05-04 21:49 | 67.00689 | 14.20159 | 8106 ft | 143 kts | 7° |
| 2026-05-04 21:49 | 67.01662 | 14.20764 | 8106 ft | 143 kts | 7° |
| 2026-05-04 21:49 | 67.02634 | 14.21369 | 8107 ft | 143 kts | 7° |
| 2026-05-04 21:49 | 67.03608 | 14.21977 | 8104 ft | 144 kts | 8° |
| 2026-05-04 21:50 | 67.04527 | 14.23023 | 8102 ft | 148 kts | 27° |
| 2026-05-04 21:50 | 67.05385 | 14.24470 | 8105 ft | 149 kts | 28° |
| 2026-05-04 21:50 | 67.06241 | 14.25944 | 8103 ft | 149 kts | 28° |
| 2026-05-04 21:50 | 67.07105 | 14.27430 | 8107 ft | 149 kts | 28° |
| 2026-05-04 21:51 | 67.07967 | 14.28912 | 8102 ft | 149 kts | 28° |
| 2026-05-04 21:51 | 67.08823 | 14.30383 | 8105 ft | 149 kts | 28° |
| 2026-05-04 21:51 | 67.09681 | 14.31857 | 8104 ft | 149 kts | 28° |
| 2026-05-04 21:51 | 67.10550 | 14.33350 | 8095 ft | 149 kts | 28° |
| 2026-05-04 21:52 | 67.11399 | 14.34812 | 8101 ft | 147 kts | 27° |
| 2026-05-04 21:52 | 67.12248 | 14.36274 | 8082 ft | 149 kts | 27° |
| 2026-05-04 21:52 | 67.13143 | 14.37814 | 7816 ft | 157 kts | 28° |
| 2026-05-04 21:52 | 67.14042 | 14.39452 | 7557 ft | 161 kts | 37° |
| 2026-05-04 21:53 | 67.14642 | 14.41920 | 7309 ft | 169 kts | 68° |
| 2026-05-04 21:53 | 67.14859 | 14.44882 | 7060 ft | 170 kts | 78° |
| 2026-05-04 21:53 | 67.15132 | 14.47813 | 6755 ft | 170 kts | 61° |
| 2026-05-04 21:53 | 67.15799 | 14.50246 | 6473 ft | 163 kts | 39° |
| 2026-05-04 21:54 | 67.16731 | 14.51759 | 6184 ft | 158 kts | 14° |
| 2026-05-04 21:54 | 67.17780 | 14.52270 | 5888 ft | 153 kts | 359° |
| 2026-05-04 21:54 | 67.18783 | 14.51824 | 5578 ft | 147 kts | 330° |
| 2026-05-04 21:54 | 67.19676 | 14.50604 | 5215 ft | 141 kts | 332° |
| 2026-05-04 21:55 | 67.20491 | 14.49848 | 5075 ft | 116 kts | 343° |
| 2026-05-04 21:55 | 67.21276 | 14.49434 | 4811 ft | 113 kts | 349° |
| 2026-05-04 21:55 | 67.22073 | 14.49367 | 4554 ft | 128 kts | 353° |
| 2026-05-04 21:55 | 67.22974 | 14.49463 | 4268 ft | 129 kts | 2° |
| 2026-05-04 21:56 | 67.23837 | 14.49624 | 3954 ft | 124 kts | 352° |
| 2026-05-04 21:56 | 67.24688 | 14.49354 | 3588 ft | 125 kts | 347° |
| 2026-05-04 21:56 | 67.25566 | 14.48779 | 3132 ft | 134 kts | 336° |
| 2026-05-04 21:56 | 67.26338 | 14.47714 | 2600 ft | 123 kts | 322° |
| 2026-05-04 21:57 | 67.26915 | 14.46162 | 1802 ft | 127 kts | 307° |
| 2026-05-04 21:57 | 67.27340 | 14.44279 | 1018 ft | 121 kts | 286° |
| 2026-05-04 21:57 | 67.27394 | 14.42287 | 433 ft | 109 kts | 262° |
| 2026-05-04 21:57 | 67.27257 | 14.40570 | 166 ft | 85 kts | 259° |
| 2026-05-04 21:58 | 67.27150 | 14.39300 | 68 ft | 60 kts | 260° |
| 2026-05-04 21:58 | 67.27090 | 14.38556 | 55 ft | 22 kts | 258° |
| 2026-05-04 21:58 | 67.27099 | 14.38412 | 56 ft | 11 kts | 306° |
| 2026-05-04 21:58 | 67.27155 | 14.38316 | 56 ft | 7 kts | 299° |
| 2026-05-04 21:59 | 67.27161 | 14.38156 | 56 ft | 13 kts | 270° |
| 2026-05-04 21:59 | 67.27157 | 14.37850 | 56 ft | 19 kts | 262° |
| 2026-05-04 21:59 | 67.27133 | 14.37553 | 54 ft | 13 kts | 259° |
| 2026-05-04 21:59 | 67.27117 | 14.37343 | 53 ft | 10 kts | 259° |
| 2026-05-04 22:00 | 67.27151 | 14.37266 | 51 ft | 6 kts | 23° |
| 2026-05-04 22:00 | 67.27171 | 14.37262 | 50 ft | 0 kts | 300° |
| 2026-05-04 22:03 | 67.27146 | 14.37212 | 50 ft | 11 kts | 202° |
| 2026-05-04 22:04 | 67.27119 | 14.37370 | 53 ft | 11 kts | 75° |
| 2026-05-04 22:04 | 67.27137 | 14.37561 | 54 ft | 13 kts | 79° |
| 2026-05-04 22:04 | 67.27162 | 14.37994 | 56 ft | 27 kts | 91° |
| 2026-05-04 22:04 | 67.27137 | 14.38354 | 56 ft | 12 kts | 146° |
| 2026-05-04 22:05 | 67.27078 | 14.38335 | 56 ft | 8 kts | 238° |
| 2026-05-04 22:05 | 67.27069 | 14.38274 | 56 ft | 4 kts | 258° |
| 2026-05-04 22:05 | 67.27028 | 14.37654 | 180 ft | 48 kts | 265° |
| 2026-05-04 22:05 | 67.27007 | 14.36872 | 495 ft | 42 kts | 271° |
| 2026-05-04 22:06 | 67.27002 | 14.36199 | 784 ft | 35 kts | 269° |
| 2026-05-04 22:06 | 67.26995 | 14.35454 | 966 ft | 53 kts | 270° |
| 2026-05-04 22:06 | 67.27106 | 14.34315 | 1185 ft | 77 kts | 326° |
| 2026-05-04 22:06 | 67.27698 | 14.34758 | 1356 ft | 109 kts | 34° |
| 2026-05-04 22:07 | 67.28271 | 14.35949 | 1550 ft | 114 kts | 39° |
| 2026-05-04 22:07 | 67.28846 | 14.37517 | 1648 ft | 123 kts | 50° |
| 2026-05-04 22:07 | 67.29301 | 14.39275 | 1908 ft | 114 kts | 54° |
| 2026-05-04 22:07 | 67.29557 | 14.39184 | 2219 ft | 84 kts | 242° |
| 2026-05-04 22:08 | 67.29145 | 14.37656 | 2103 ft | 117 kts | 231° |
| 2026-05-04 22:08 | 67.28601 | 14.35819 | 1928 ft | 126 kts | 273° |
| 2026-05-04 22:08 | 67.28942 | 14.36666 | 2200 ft | 105 kts | 104° |
| 2026-05-04 22:08 | 67.28804 | 14.38683 | 2274 ft | 116 kts | 98° |
| 2026-05-04 22:09 | 67.28620 | 14.40764 | 2400 ft | 122 kts | 119° |
| 2026-05-04 22:09 | 67.28065 | 14.42350 | 2617 ft | 116 kts | 146° |
| 2026-05-04 22:09 | 67.27327 | 14.42484 | 2799 ft | 111 kts | 201° |
| 2026-05-04 22:09 | 67.26834 | 14.41144 | 2920 ft | 116 kts | 263° |
| 2026-05-04 22:10 | 67.27048 | 14.39172 | 2964 ft | 117 kts | 313° |
| 2026-05-04 22:10 | 67.27808 | 14.38707 | 3130 ft | 123 kts | 18° |
| 2026-05-04 22:10 | 67.28560 | 14.39669 | 3330 ft | 119 kts | 14° |
| 2026-05-04 22:10 | 67.29331 | 14.40184 | 3587 ft | 112 kts | 6° |
| 2026-05-04 22:11 | 67.30090 | 14.40543 | 3847 ft | 110 kts | 6° |
| 2026-05-04 22:11 | 67.30833 | 14.40945 | 4108 ft | 108 kts | 8° |
| 2026-05-04 22:11 | 67.31554 | 14.41406 | 4368 ft | 106 kts | 9° |
| 2026-05-04 22:11 | 67.32144 | 14.42544 | 4633 ft | 111 kts | 54° |
| 2026-05-04 22:12 | 67.32468 | 14.44349 | 4897 ft | 111 kts | 63° |
| 2026-05-04 22:12 | 67.32770 | 14.46225 | 5164 ft | 115 kts | 63° |
| 2026-05-04 22:12 | 67.33083 | 14.48161 | 5429 ft | 118 kts | 63° |
| 2026-05-04 22:12 | 67.33478 | 14.49970 | 5690 ft | 115 kts | 36° |
| 2026-05-04 22:13 | 67.34110 | 14.51208 | 5959 ft | 114 kts | 29° |
| 2026-05-04 22:13 | 67.34759 | 14.52383 | 6224 ft | 115 kts | 29° |
| 2026-05-04 22:13 | 67.35411 | 14.53559 | 6499 ft | 116 kts | 28° |
| 2026-05-04 22:13 | 67.36106 | 14.54549 | 6768 ft | 111 kts | 9° |
| 2026-05-04 22:14 | 67.36866 | 14.55038 | 6958 ft | 117 kts | 7° |
| 2026-05-04 22:14 | 67.37703 | 14.55520 | 6986 ft | 131 kts | 6° |
| 2026-05-04 22:14 | 67.38631 | 14.56034 | 6983 ft | 139 kts | 7° |
| 2026-05-04 22:14 | 67.39584 | 14.56550 | 6980 ft | 142 kts | 6° |
| 2026-05-04 22:15 | 67.40552 | 14.57067 | 6979 ft | 144 kts | 7° |
| 2026-05-04 22:15 | 67.41545 | 14.57592 | 6977 ft | 144 kts | 7° |
| 2026-05-04 22:15 | 67.42529 | 14.58111 | 6971 ft | 145 kts | 6° |
| 2026-05-04 22:15 | 67.43513 | 14.58534 | 6970 ft | 144 kts | 1° |
| 2026-05-04 22:16 | 67.44515 | 14.58796 | 6974 ft | 143 kts | 0° |
| 2026-05-04 22:16 | 67.45495 | 14.59048 | 6975 ft | 143 kts | 0° |
| 2026-05-04 22:16 | 67.46484 | 14.59302 | 6972 ft | 142 kts | 0° |
| 2026-05-04 22:16 | 67.47458 | 14.59552 | 6975 ft | 140 kts | 0° |
| 2026-05-04 22:17 | 67.48420 | 14.59804 | 6971 ft | 136 kts | 0° |
| 2026-05-04 22:17 | 67.49357 | 14.60052 | 6971 ft | 134 kts | 0° |
| 2026-05-04 22:17 | 67.50268 | 14.60298 | 6971 ft | 133 kts | 0° |
| 2026-05-04 22:17 | 67.51196 | 14.60548 | 6970 ft | 132 kts | 1° |
| 2026-05-04 22:18 | 67.52104 | 14.60787 | 6966 ft | 131 kts | 1° |
| 2026-05-04 22:18 | 67.53011 | 14.61013 | 6966 ft | 131 kts | 0° |
| 2026-05-04 22:18 | 67.53910 | 14.61236 | 6964 ft | 131 kts | 1° |
| 2026-05-04 22:18 | 67.54814 | 14.61452 | 6963 ft | 130 kts | 1° |
| 2026-05-04 22:19 | 67.55714 | 14.61832 | 6962 ft | 132 kts | 13° |
| 2026-05-04 22:19 | 67.56573 | 14.62658 | 6971 ft | 133 kts | 17° |
| 2026-05-04 22:19 | 67.57436 | 14.63569 | 6977 ft | 133 kts | 15° |
| 2026-05-04 22:19 | 67.58300 | 14.64424 | 6977 ft | 133 kts | 14° |
| 2026-05-04 22:20 | 67.59168 | 14.65246 | 6977 ft | 133 kts | 15° |
| 2026-05-04 22:20 | 67.60051 | 14.66061 | 6980 ft | 133 kts | 14° |
| 2026-05-04 22:20 | 67.60920 | 14.66851 | 6977 ft | 133 kts | 14° |
| 2026-05-04 22:20 | 67.61795 | 14.67641 | 6976 ft | 133 kts | 14° |
| 2026-05-04 22:21 | 67.62673 | 14.68430 | 6975 ft | 133 kts | 14° |
| 2026-05-04 22:21 | 67.63550 | 14.69216 | 6976 ft | 133 kts | 14° |
| 2026-05-04 22:21 | 67.64428 | 14.70001 | 6974 ft | 133 kts | 14° |
| 2026-05-04 22:21 | 67.65312 | 14.70793 | 6971 ft | 133 kts | 15° |
| 2026-05-04 22:22 | 67.66185 | 14.71575 | 6967 ft | 132 kts | 15° |
| 2026-05-04 22:22 | 67.67039 | 14.72340 | 6963 ft | 131 kts | 15° |
| 2026-05-04 22:22 | 67.67918 | 14.73126 | 6897 ft | 136 kts | 15° |
| 2026-05-04 22:22 | 67.68829 | 14.73942 | 6769 ft | 140 kts | 14° |
| 2026-05-04 22:23 | 67.69756 | 14.74773 | 6632 ft | 142 kts | 14° |
| 2026-05-04 22:23 | 67.70672 | 14.75595 | 6501 ft | 140 kts | 14° |
| 2026-05-04 22:23 | 67.71599 | 14.76428 | 6373 ft | 140 kts | 14° |
| 2026-05-04 22:23 | 67.72514 | 14.77251 | 6245 ft | 139 kts | 14° |
| 2026-05-04 22:24 | 67.73425 | 14.78070 | 6114 ft | 139 kts | 14° |
| 2026-05-04 22:24 | 67.74339 | 14.78894 | 5980 ft | 139 kts | 14° |
| 2026-05-04 22:24 | 67.75257 | 14.79721 | 5842 ft | 137 kts | 14° |
| 2026-05-04 22:24 | 67.76154 | 14.80539 | 5703 ft | 136 kts | 17° |
| 2026-05-04 22:25 | 67.76955 | 14.81854 | 5577 ft | 138 kts | 30° |
| 2026-05-04 22:25 | 67.77744 | 14.83304 | 5445 ft | 137 kts | 31° |
| 2026-05-04 22:25 | 67.78530 | 14.84744 | 5314 ft | 137 kts | 30° |
| 2026-05-04 22:25 | 67.79315 | 14.86188 | 5179 ft | 137 kts | 30° |
| 2026-05-04 22:26 | 67.80086 | 14.87606 | 5046 ft | 137 kts | 30° |
| 2026-05-04 22:26 | 67.80868 | 14.89047 | 4914 ft | 137 kts | 30° |
| 2026-05-04 22:26 | 67.81646 | 14.90480 | 4781 ft | 137 kts | 30° |
| 2026-05-04 22:26 | 67.82433 | 14.91932 | 4659 ft | 136 kts | 30° |
| 2026-05-04 22:27 | 67.83211 | 14.93341 | 4545 ft | 135 kts | 27° |
| 2026-05-04 22:27 | 67.84049 | 14.94341 | 4422 ft | 133 kts | 18° |
| 2026-05-04 22:27 | 67.84914 | 14.95263 | 4287 ft | 134 kts | 17° |
| 2026-05-04 22:27 | 67.85779 | 14.96183 | 4154 ft | 134 kts | 17° |
| 2026-05-04 22:28 | 67.86640 | 14.97100 | 4023 ft | 134 kts | 17° |
| 2026-05-04 22:28 | 67.87502 | 14.98025 | 3887 ft | 133 kts | 17° |
| 2026-05-04 22:28 | 67.88351 | 14.98938 | 3756 ft | 132 kts | 18° |
| 2026-05-04 22:28 | 67.89184 | 14.99836 | 3622 ft | 129 kts | 17° |
| 2026-05-04 22:29 | 67.90008 | 15.00729 | 3486 ft | 126 kts | 17° |
| 2026-05-04 22:29 | 67.90794 | 15.01592 | 3228 ft | 114 kts | 17° |
| 2026-05-04 22:29 | 67.91482 | 15.02383 | 2955 ft | 104 kts | 17° |
| 2026-05-04 22:29 | 67.92125 | 15.03142 | 2690 ft | 100 kts | 17° |
| 2026-05-04 22:30 | 67.92750 | 15.03886 | 2431 ft | 98 kts | 17° |
| 2026-05-04 22:30 | 67.93362 | 15.04622 | 2159 ft | 97 kts | 17° |
| 2026-05-04 22:30 | 67.93966 | 15.05339 | 1888 ft | 96 kts | 18° |
| 2026-05-04 22:30 | 67.94571 | 15.06033 | 1711 ft | 93 kts | 12° |
| 2026-05-04 22:31 | 67.95187 | 15.06566 | 1457 ft | 93 kts | 9° |
| 2026-05-04 22:31 | 67.95792 | 15.07038 | 1294 ft | 90 kts | 14° |
| 2026-05-04 22:31 | 67.96362 | 15.07840 | 1067 ft | 94 kts | 30° |
| 2026-05-04 22:31 | 67.96828 | 15.08929 | 908 ft | 85 kts | 41° |
| 2026-05-04 22:32 | 67.97276 | 15.09892 | 906 ft | 79 kts | 16° |
| 2026-05-04 22:32 | 67.97767 | 15.10129 | 959 ft | 70 kts | 349° |
| 2026-05-04 22:32 | 67.98213 | 15.09792 | 1024 ft | 66 kts | 325° |
| 2026-05-04 22:32 | 67.98558 | 15.08968 | 1050 ft | 65 kts | 296° |
| 2026-05-04 22:33 | 67.98645 | 15.07811 | 1044 ft | 67 kts | 264° |
| 2026-05-04 22:33 | 67.98486 | 15.06642 | 893 ft | 70 kts | 241° |
| 2026-05-04 22:33 | 67.98145 | 15.05705 | 731 ft | 72 kts | 218° |
| 2026-05-04 22:33 | 67.97776 | 15.04859 | 520 ft | 70 kts | 231° |
| 2026-05-04 22:34 | 67.97574 | 15.03733 | 334 ft | 67 kts | 249° |
| 2026-05-04 22:34 | 67.97398 | 15.02656 | 234 ft | 59 kts | 241° |
| 2026-05-04 22:34 | 67.97221 | 15.01703 | 180 ft | 52 kts | 252° |
| 2026-05-04 22:34 | 67.97096 | 15.00907 | 152 ft | 44 kts | 245° |
| 2026-05-04 22:35 | 67.96933 | 15.00210 | 134 ft | 43 kts | 242° |
| 2026-05-04 22:35 | 67.96756 | 14.99448 | 47 ft | 47 kts | 239° |
| 2026-05-04 22:35 | 67.96684 | 14.99061 | 31 ft | 5 kts | 219° |
| 2026-05-04 22:35 | 67.96674 | 14.99101 | 33 ft | 3 kts | 64° |
| 2026-05-04 22:36 | 67.96715 | 14.99404 | 45 ft | 5 kts | 82° |
| 2026-05-04 22:36 | 67.96712 | 14.99496 | 49 ft | 0 kts | 69° |